sensor_id;sensor_type;location;lat;lon;timestamp;P1;durP1;ratioP1;P2;durP2;ratioP2
63346;SDS011;49472;49.880;8.650;2023-07-09T00:02:12;14.60;;;13.18;;
63346;SDS011;49472;49.880;8.650;2023-07-09T00:04:37;14.93;;;13.82;;
63346;SDS011;49472;49.880;8.650;2023-07-09T00:07:03;14.48;;;13.35;;
63346;SDS011;49472;49.880;8.650;2023-07-09T00:09:29;14.55;;;13.15;;
63346;SDS011;49472;49.880;8.650;2023-07-09T00:11:55;14.38;;;13.18;;
63346;SDS011;49472;49.880;8.650;2023-07-09T00:14:21;16.00;;;14.45;;
63346;SDS011;49472;49.880;8.650;2023-07-09T00:16:46;14.60;;;13.40;;
63346;SDS011;49472;49.880;8.650;2023-07-09T00:19:18;14.98;;;13.25;;
63346;SDS011;49472;49.880;8.650;2023-07-09T00:21:46;14.43;;;13.20;;
63346;SDS011;49472;49.880;8.650;2023-07-09T00:24:14;15.20;;;13.70;;
63346;SDS011;49472;49.880;8.650;2023-07-09T00:26:40;15.32;;;13.80;;
63346;SDS011;49472;49.880;8.650;2023-07-09T00:29:10;14.45;;;13.27;;
63346;SDS011;49472;49.880;8.650;2023-07-09T00:31:36;14.95;;;13.57;;
63346;SDS011;49472;49.880;8.650;2023-07-09T00:34:09;18.85;;;13.95;;
63346;SDS011;49472;49.880;8.650;2023-07-09T00:36:38;16.95;;;14.55;;
63346;SDS011;49472;49.880;8.650;2023-07-09T00:39:04;14.50;;;13.30;;
63346;SDS011;49472;49.880;8.650;2023-07-09T00:41:34;15.13;;;13.85;;
63346;SDS011;49472;49.880;8.650;2023-07-09T00:49:24;16.20;;;14.65;;
63346;SDS011;49472;49.880;8.650;2023-07-09T00:51:54;15.38;;;13.88;;
63346;SDS011;49472;49.880;8.650;2023-07-09T00:54:37;16.13;;;14.38;;
63346;SDS011;49472;49.880;8.650;2023-07-09T00:57:08;19.08;;;13.90;;
63346;SDS011;49472;49.880;8.650;2023-07-09T00:59:37;15.40;;;13.98;;
63346;SDS011;49472;49.880;8.650;2023-07-09T01:02:05;14.93;;;13.70;;
63346;SDS011;49472;49.880;8.650;2023-07-09T01:04:33;17.33;;;14.55;;
63346;SDS011;49472;49.880;8.650;2023-07-09T01:06:58;15.13;;;13.77;;
63346;SDS011;49472;49.880;8.650;2023-07-09T01:09:24;16.02;;;13.52;;
63346;SDS011;49472;49.880;8.650;2023-07-09T01:11:50;18.42;;;14.73;;
63346;SDS011;49472;49.880;8.650;2023-07-09T01:14:18;16.40;;;14.30;;
63346;SDS011;49472;49.880;8.650;2023-07-09T01:16:48;15.13;;;14.00;;
63346;SDS011;49472;49.880;8.650;2023-07-09T01:19:22;15.45;;;13.93;;
63346;SDS011;49472;49.880;8.650;2023-07-09T01:22:00;20.40;;;13.07;;
63346;SDS011;49472;49.880;8.650;2023-07-09T01:27:12;15.75;;;14.30;;
63346;SDS011;49472;49.880;8.650;2023-07-09T01:29:38;14.25;;;13.15;;
63346;SDS011;49472;49.880;8.650;2023-07-09T01:32:04;15.52;;;14.35;;
63346;SDS011;49472;49.880;8.650;2023-07-09T01:34:31;14.63;;;13.48;;
63346;SDS011;49472;49.880;8.650;2023-07-09T01:36:57;16.13;;;14.68;;
63346;SDS011;49472;49.880;8.650;2023-07-09T01:39:22;15.10;;;13.27;;
63346;SDS011;49472;49.880;8.650;2023-07-09T01:41:49;15.48;;;14.05;;
63346;SDS011;49472;49.880;8.650;2023-07-09T01:44:14;15.90;;;13.57;;
63346;SDS011;49472;49.880;8.650;2023-07-09T01:46:40;16.73;;;15.23;;
63346;SDS011;49472;49.880;8.650;2023-07-09T01:49:06;15.10;;;13.65;;
63346;SDS011;49472;49.880;8.650;2023-07-09T01:51:33;17.20;;;15.48;;
63346;SDS011;49472;49.880;8.650;2023-07-09T01:54:01;17.95;;;14.95;;
63346;SDS011;49472;49.880;8.650;2023-07-09T01:56:26;21.65;;;15.80;;
63346;SDS011;49472;49.880;8.650;2023-07-09T01:58:52;16.25;;;14.60;;
63346;SDS011;49472;49.880;8.650;2023-07-09T02:01:17;16.88;;;15.20;;
63346;SDS011;49472;49.880;8.650;2023-07-09T02:03:44;16.35;;;14.82;;
63346;SDS011;49472;49.880;8.650;2023-07-09T02:06:10;20.63;;;15.05;;
63346;SDS011;49472;49.880;8.650;2023-07-09T02:08:35;17.25;;;15.65;;
63346;SDS011;49472;49.880;8.650;2023-07-09T02:11:01;18.30;;;15.35;;
63346;SDS011;49472;49.880;8.650;2023-07-09T02:13:26;15.77;;;14.30;;
63346;SDS011;49472;49.880;8.650;2023-07-09T02:15:52;17.30;;;15.68;;
63346;SDS011;49472;49.880;8.650;2023-07-09T02:18:17;17.13;;;15.48;;
63346;SDS011;49472;49.880;8.650;2023-07-09T02:20:45;16.40;;;14.75;;
63346;SDS011;49472;49.880;8.650;2023-07-09T02:23:11;15.75;;;14.43;;
63346;SDS011;49472;49.880;8.650;2023-07-09T02:25:36;15.85;;;14.30;;
63346;SDS011;49472;49.880;8.650;2023-07-09T02:28:02;16.60;;;15.10;;
63346;SDS011;49472;49.880;8.650;2023-07-09T02:30:30;15.85;;;14.55;;
63346;SDS011;49472;49.880;8.650;2023-07-09T02:32:55;15.88;;;14.57;;
63346;SDS011;49472;49.880;8.650;2023-07-09T02:35:21;16.90;;;15.15;;
63346;SDS011;49472;49.880;8.650;2023-07-09T02:37:48;16.92;;;15.32;;
63346;SDS011;49472;49.880;8.650;2023-07-09T02:40:15;16.77;;;15.02;;
63346;SDS011;49472;49.880;8.650;2023-07-09T02:42:41;15.40;;;14.18;;
63346;SDS011;49472;49.880;8.650;2023-07-09T02:45:06;16.15;;;14.85;;
63346;SDS011;49472;49.880;8.650;2023-07-09T02:47:33;17.17;;;15.48;;
63346;SDS011;49472;49.880;8.650;2023-07-09T02:49:59;16.42;;;14.93;;
63346;SDS011;49472;49.880;8.650;2023-07-09T02:52:24;15.43;;;13.90;;
63346;SDS011;49472;49.880;8.650;2023-07-09T02:54:49;18.23;;;15.95;;
63346;SDS011;49472;49.880;8.650;2023-07-09T02:57:15;16.30;;;14.70;;
63346;SDS011;49472;49.880;8.650;2023-07-09T02:59:40;25.17;;;16.17;;
63346;SDS011;49472;49.880;8.650;2023-07-09T03:02:05;16.42;;;14.77;;
63346;SDS011;49472;49.880;8.650;2023-07-09T03:04:31;16.83;;;15.43;;
63346;SDS011;49472;49.880;8.650;2023-07-09T03:06:56;18.55;;;16.33;;
63346;SDS011;49472;49.880;8.650;2023-07-09T03:09:22;15.55;;;14.00;;
63346;SDS011;49472;49.880;8.650;2023-07-09T03:11:48;15.88;;;14.15;;
63346;SDS011;49472;49.880;8.650;2023-07-09T03:14:13;15.75;;;14.27;;
63346;SDS011;49472;49.880;8.650;2023-07-09T03:16:39;18.65;;;14.75;;
63346;SDS011;49472;49.880;8.650;2023-07-09T03:19:05;18.05;;;14.57;;
63346;SDS011;49472;49.880;8.650;2023-07-09T03:21:30;15.43;;;14.05;;
63346;SDS011;49472;49.880;8.650;2023-07-09T03:23:56;15.73;;;14.30;;
63346;SDS011;49472;49.880;8.650;2023-07-09T03:26:22;16.17;;;14.75;;
63346;SDS011;49472;49.880;8.650;2023-07-09T03:28:47;14.98;;;13.55;;
63346;SDS011;49472;49.880;8.650;2023-07-09T03:31:13;15.25;;;14.13;;
63346;SDS011;49472;49.880;8.650;2023-07-09T03:33:39;15.75;;;13.35;;
63346;SDS011;49472;49.880;8.650;2023-07-09T03:36:05;15.55;;;14.30;;
63346;SDS011;49472;49.880;8.650;2023-07-09T03:38:31;15.55;;;14.35;;
63346;SDS011;49472;49.880;8.650;2023-07-09T03:40:56;15.13;;;14.02;;
63346;SDS011;49472;49.880;8.650;2023-07-09T03:43:22;15.55;;;14.23;;
63346;SDS011;49472;49.880;8.650;2023-07-09T03:45:48;16.42;;;15.02;;
63346;SDS011;49472;49.880;8.650;2023-07-09T03:48:15;17.52;;;15.05;;
63346;SDS011;49472;49.880;8.650;2023-07-09T03:50:42;16.02;;;14.40;;
63346;SDS011;49472;49.880;8.650;2023-07-09T03:53:09;17.33;;;15.65;;
63346;SDS011;49472;49.880;8.650;2023-07-09T03:55:34;16.92;;;14.63;;
63346;SDS011;49472;49.880;8.650;2023-07-09T03:58:00;16.35;;;14.68;;
63346;SDS011;49472;49.880;8.650;2023-07-09T04:00:27;21.00;;;14.27;;
63346;SDS011;49472;49.880;8.650;2023-07-09T04:02:53;17.33;;;15.73;;
63346;SDS011;49472;49.880;8.650;2023-07-09T04:05:20;15.95;;;14.35;;
63346;SDS011;49472;49.880;8.650;2023-07-09T04:07:46;17.70;;;13.80;;
63346;SDS011;49472;49.880;8.650;2023-07-09T04:10:11;15.68;;;14.48;;
63346;SDS011;49472;49.880;8.650;2023-07-09T04:12:36;18.08;;;14.57;;
63346;SDS011;49472;49.880;8.650;2023-07-09T04:15:05;15.98;;;14.50;;
63346;SDS011;49472;49.880;8.650;2023-07-09T04:17:31;16.27;;;14.77;;
63346;SDS011;49472;49.880;8.650;2023-07-09T04:19:57;16.90;;;15.30;;
63346;SDS011;49472;49.880;8.650;2023-07-09T04:22:22;18.67;;;16.17;;
63346;SDS011;49472;49.880;8.650;2023-07-09T04:24:48;24.33;;;15.73;;
63346;SDS011;49472;49.880;8.650;2023-07-09T04:27:14;23.83;;;16.20;;
63346;SDS011;49472;49.880;8.650;2023-07-09T04:29:40;23.77;;;15.18;;
63346;SDS011;49472;49.880;8.650;2023-07-09T04:32:12;32.35;;;14.95;;
63346;SDS011;49472;49.880;8.650;2023-07-09T04:34:38;15.15;;;13.70;;
63346;SDS011;49472;49.880;8.650;2023-07-09T04:37:07;16.35;;;15.05;;
63346;SDS011;49472;49.880;8.650;2023-07-09T04:39:34;20.90;;;14.68;;
63346;SDS011;49472;49.880;8.650;2023-07-09T04:42:00;17.60;;;15.73;;
63346;SDS011;49472;49.880;8.650;2023-07-09T04:44:25;16.73;;;15.15;;
63346;SDS011;49472;49.880;8.650;2023-07-09T04:46:50;18.17;;;14.75;;
63346;SDS011;49472;49.880;8.650;2023-07-09T04:49:16;16.70;;;15.23;;
63346;SDS011;49472;49.880;8.650;2023-07-09T04:51:41;15.60;;;14.25;;
63346;SDS011;49472;49.880;8.650;2023-07-09T04:54:07;16.60;;;15.00;;
63346;SDS011;49472;49.880;8.650;2023-07-09T04:56:32;16.33;;;14.82;;
63346;SDS011;49472;49.880;8.650;2023-07-09T04:58:57;17.05;;;15.65;;
63346;SDS011;49472;49.880;8.650;2023-07-09T05:01:23;16.77;;;14.52;;
63346;SDS011;49472;49.880;8.650;2023-07-09T05:03:48;16.17;;;14.82;;
63346;SDS011;49472;49.880;8.650;2023-07-09T05:06:14;17.13;;;15.43;;
63346;SDS011;49472;49.880;8.650;2023-07-09T05:08:39;15.13;;;13.98;;
63346;SDS011;49472;49.880;8.650;2023-07-09T05:11:05;15.90;;;14.43;;
63346;SDS011;49472;49.880;8.650;2023-07-09T05:13:30;15.68;;;14.25;;
63346;SDS011;49472;49.880;8.650;2023-07-09T05:15:56;16.25;;;14.75;;
63346;SDS011;49472;49.880;8.650;2023-07-09T05:18:21;20.65;;;14.50;;
63346;SDS011;49472;49.880;8.650;2023-07-09T05:20:47;16.42;;;15.00;;
63346;SDS011;49472;49.880;8.650;2023-07-09T05:23:14;16.35;;;14.65;;
63346;SDS011;49472;49.880;8.650;2023-07-09T05:25:40;15.93;;;14.43;;
63346;SDS011;49472;49.880;8.650;2023-07-09T05:28:06;16.52;;;14.70;;
63346;SDS011;49472;49.880;8.650;2023-07-09T05:30:31;16.17;;;14.98;;
63346;SDS011;49472;49.880;8.650;2023-07-09T05:32:57;17.40;;;15.85;;
63346;SDS011;49472;49.880;8.650;2023-07-09T05:35:24;18.42;;;15.45;;
63346;SDS011;49472;49.880;8.650;2023-07-09T05:37:53;16.75;;;14.90;;
63346;SDS011;49472;49.880;8.650;2023-07-09T05:40:19;16.20;;;14.60;;
63346;SDS011;49472;49.880;8.650;2023-07-09T05:42:45;16.80;;;15.40;;
63346;SDS011;49472;49.880;8.650;2023-07-09T05:45:10;19.10;;;14.65;;
63346;SDS011;49472;49.880;8.650;2023-07-09T05:47:36;18.10;;;16.33;;
63346;SDS011;49472;49.880;8.650;2023-07-09T05:50:02;17.52;;;15.45;;
63346;SDS011;49472;49.880;8.650;2023-07-09T05:52:28;18.52;;;16.52;;
63346;SDS011;49472;49.880;8.650;2023-07-09T05:54:54;17.05;;;14.95;;
63346;SDS011;49472;49.880;8.650;2023-07-09T05:57:20;16.95;;;15.43;;
63346;SDS011;49472;49.880;8.650;2023-07-09T05:59:46;16.15;;;14.85;;
63346;SDS011;49472;49.880;8.650;2023-07-09T06:02:12;17.27;;;15.63;;
63346;SDS011;49472;49.880;8.650;2023-07-09T06:04:38;18.98;;;17.13;;
63346;SDS011;49472;49.880;8.650;2023-07-09T06:07:04;18.90;;;16.08;;
63346;SDS011;49472;49.880;8.650;2023-07-09T06:09:30;16.63;;;15.05;;
63346;SDS011;49472;49.880;8.650;2023-07-09T06:11:56;16.95;;;15.23;;
63346;SDS011;49472;49.880;8.650;2023-07-09T06:14:22;16.88;;;15.40;;
63346;SDS011;49472;49.880;8.650;2023-07-09T06:16:47;18.40;;;16.45;;
63346;SDS011;49472;49.880;8.650;2023-07-09T06:19:12;17.35;;;15.18;;
63346;SDS011;49472;49.880;8.650;2023-07-09T06:21:38;16.70;;;14.93;;
63346;SDS011;49472;49.880;8.650;2023-07-09T06:24:05;17.23;;;15.73;;
63346;SDS011;49472;49.880;8.650;2023-07-09T06:26:31;17.83;;;15.57;;
63346;SDS011;49472;49.880;8.650;2023-07-09T06:28:56;17.30;;;15.57;;
63346;SDS011;49472;49.880;8.650;2023-07-09T06:31:21;17.85;;;15.88;;
63346;SDS011;49472;49.880;8.650;2023-07-09T06:33:49;18.05;;;16.45;;
63346;SDS011;49472;49.880;8.650;2023-07-09T06:36:14;18.88;;;16.90;;
63346;SDS011;49472;49.880;8.650;2023-07-09T06:38:40;17.95;;;16.20;;
63346;SDS011;49472;49.880;8.650;2023-07-09T06:41:05;19.33;;;17.30;;
63346;SDS011;49472;49.880;8.650;2023-07-09T06:43:30;19.52;;;15.90;;
63346;SDS011;49472;49.880;8.650;2023-07-09T06:46:00;15.98;;;14.57;;
63346;SDS011;49472;49.880;8.650;2023-07-09T06:48:26;18.00;;;15.82;;
63346;SDS011;49472;49.880;8.650;2023-07-09T06:50:54;15.98;;;14.68;;
63346;SDS011;49472;49.880;8.650;2023-07-09T06:53:21;18.00;;;15.95;;
63346;SDS011;49472;49.880;8.650;2023-07-09T06:55:47;18.92;;;17.00;;
63346;SDS011;49472;49.880;8.650;2023-07-09T06:58:14;17.92;;;16.45;;
63346;SDS011;49472;49.880;8.650;2023-07-09T07:00:45;17.13;;;15.68;;
63346;SDS011;49472;49.880;8.650;2023-07-09T07:03:10;17.10;;;15.60;;
63346;SDS011;49472;49.880;8.650;2023-07-09T07:05:36;17.42;;;15.82;;
63346;SDS011;49472;49.880;8.650;2023-07-09T07:08:02;20.73;;;16.15;;
63346;SDS011;49472;49.880;8.650;2023-07-09T07:10:28;17.90;;;16.30;;
63346;SDS011;49472;49.880;8.650;2023-07-09T07:12:54;18.00;;;16.17;;
63346;SDS011;49472;49.880;8.650;2023-07-09T07:15:20;16.88;;;15.18;;
63346;SDS011;49472;49.880;8.650;2023-07-09T07:17:46;18.45;;;16.27;;
63346;SDS011;49472;49.880;8.650;2023-07-09T07:20:12;17.77;;;16.17;;
63346;SDS011;49472;49.880;8.650;2023-07-09T07:22:38;17.23;;;15.68;;
63346;SDS011;49472;49.880;8.650;2023-07-09T07:25:05;19.17;;;15.90;;
63346;SDS011;49472;49.880;8.650;2023-07-09T07:27:31;17.42;;;15.57;;
63346;SDS011;49472;49.880;8.650;2023-07-09T07:29:56;18.50;;;16.65;;
63346;SDS011;49472;49.880;8.650;2023-07-09T07:32:22;17.80;;;16.15;;
63346;SDS011;49472;49.880;8.650;2023-07-09T07:34:49;17.42;;;14.95;;
63346;SDS011;49472;49.880;8.650;2023-07-09T07:37:15;18.05;;;16.55;;
63346;SDS011;49472;49.880;8.650;2023-07-09T07:39:44;19.15;;;16.00;;
63346;SDS011;49472;49.880;8.650;2023-07-09T07:42:09;19.15;;;15.75;;
63346;SDS011;49472;49.880;8.650;2023-07-09T07:44:35;17.50;;;15.80;;
63346;SDS011;49472;49.880;8.650;2023-07-09T07:47:01;16.35;;;14.95;;
63346;SDS011;49472;49.880;8.650;2023-07-09T07:49:26;16.73;;;15.20;;
63346;SDS011;49472;49.880;8.650;2023-07-09T07:51:51;17.65;;;15.95;;
63346;SDS011;49472;49.880;8.650;2023-07-09T07:54:17;18.20;;;16.35;;
63346;SDS011;49472;49.880;8.650;2023-07-09T07:56:43;17.73;;;15.98;;
63346;SDS011;49472;49.880;8.650;2023-07-09T07:59:08;21.33;;;15.55;;
63346;SDS011;49472;49.880;8.650;2023-07-09T08:01:33;17.13;;;15.73;;
63346;SDS011;49472;49.880;8.650;2023-07-09T08:04:04;19.23;;;14.70;;
63346;SDS011;49472;49.880;8.650;2023-07-09T08:06:30;17.27;;;15.38;;
63346;SDS011;49472;49.880;8.650;2023-07-09T08:08:56;17.85;;;16.08;;
63346;SDS011;49472;49.880;8.650;2023-07-09T08:11:22;16.50;;;15.00;;
63346;SDS011;49472;49.880;8.650;2023-07-09T08:13:47;16.77;;;15.38;;
63346;SDS011;49472;49.880;8.650;2023-07-09T08:16:13;16.73;;;15.13;;
63346;SDS011;49472;49.880;8.650;2023-07-09T08:18:38;17.95;;;16.13;;
63346;SDS011;49472;49.880;8.650;2023-07-09T08:21:04;18.63;;;16.77;;
63346;SDS011;49472;49.880;8.650;2023-07-09T08:23:30;20.15;;;15.30;;
63346;SDS011;49472;49.880;8.650;2023-07-09T08:25:56;17.92;;;16.13;;
63346;SDS011;49472;49.880;8.650;2023-07-09T08:28:23;15.70;;;14.43;;
63346;SDS011;49472;49.880;8.650;2023-07-09T08:30:51;15.70;;;14.48;;
63346;SDS011;49472;49.880;8.650;2023-07-09T08:33:18;16.98;;;15.38;;
63346;SDS011;49472;49.880;8.650;2023-07-09T08:35:43;17.25;;;14.88;;
63346;SDS011;49472;49.880;8.650;2023-07-09T08:38:09;16.38;;;14.82;;
63346;SDS011;49472;49.880;8.650;2023-07-09T08:40:38;15.73;;;14.43;;
63346;SDS011;49472;49.880;8.650;2023-07-09T08:43:10;16.02;;;14.70;;
63346;SDS011;49472;49.880;8.650;2023-07-09T08:48:31;15.55;;;14.23;;
63346;SDS011;49472;49.880;8.650;2023-07-09T08:51:00;16.20;;;15.02;;
63346;SDS011;49472;49.880;8.650;2023-07-09T08:53:38;16.15;;;14.90;;
63346;SDS011;49472;49.880;8.650;2023-07-09T08:56:08;16.02;;;14.50;;
63346;SDS011;49472;49.880;8.650;2023-07-09T08:58:34;15.65;;;14.25;;
63346;SDS011;49472;49.880;8.650;2023-07-09T09:01:02;16.63;;;15.13;;
63346;SDS011;49472;49.880;8.650;2023-07-09T09:03:41;18.17;;;14.48;;
63346;SDS011;49472;49.880;8.650;2023-07-09T09:06:14;16.10;;;14.48;;
63346;SDS011;49472;49.880;8.650;2023-07-09T09:08:51;16.90;;;14.70;;
63346;SDS011;49472;49.880;8.650;2023-07-09T09:12:03;15.63;;;14.30;;
63346;SDS011;49472;49.880;8.650;2023-07-09T09:17:04;20.92;;;14.95;;
63346;SDS011;49472;49.880;8.650;2023-07-09T09:20:21;17.15;;;15.43;;
63346;SDS011;49472;49.880;8.650;2023-07-09T09:22:30;16.67;;;15.00;;
63346;SDS011;49472;49.880;8.650;2023-07-09T09:25:03;15.77;;;14.38;;
63346;SDS011;49472;49.880;8.650;2023-07-09T09:27:40;17.63;;;14.82;;
63346;SDS011;49472;49.880;8.650;2023-07-09T09:30:20;19.67;;;14.73;;
63346;SDS011;49472;49.880;8.650;2023-07-09T09:33:01;18.13;;;15.48;;
63346;SDS011;49472;49.880;8.650;2023-07-09T09:35:36;17.08;;;15.43;;
63346;SDS011;49472;49.880;8.650;2023-07-09T09:38:08;14.63;;;13.55;;
63346;SDS011;49472;49.880;8.650;2023-07-09T09:40:38;15.77;;;14.13;;
63346;SDS011;49472;49.880;8.650;2023-07-09T09:43:12;15.93;;;14.52;;
63346;SDS011;49472;49.880;8.650;2023-07-09T09:45:39;15.43;;;14.13;;
63346;SDS011;49472;49.880;8.650;2023-07-09T09:48:26;15.02;;;13.90;;
63346;SDS011;49472;49.880;8.650;2023-07-09T09:50:54;16.58;;;14.88;;
63346;SDS011;49472;49.880;8.650;2023-07-09T09:53:23;15.88;;;14.23;;
63346;SDS011;49472;49.880;8.650;2023-07-09T09:55:53;15.05;;;13.88;;
63346;SDS011;49472;49.880;8.650;2023-07-09T09:58:19;15.13;;;13.75;;
63346;SDS011;49472;49.880;8.650;2023-07-09T10:00:49;14.40;;;13.27;;
63346;SDS011;49472;49.880;8.650;2023-07-09T10:03:16;14.30;;;13.38;;
63346;SDS011;49472;49.880;8.650;2023-07-09T10:05:55;15.38;;;13.48;;
63346;SDS011;49472;49.880;8.650;2023-07-09T10:10:51;14.35;;;13.13;;
63346;SDS011;49472;49.880;8.650;2023-07-09T10:13:26;14.50;;;13.20;;
63346;SDS011;49472;49.880;8.650;2023-07-09T10:21:15;14.25;;;12.75;;
63346;SDS011;49472;49.880;8.650;2023-07-09T10:24:12;16.65;;;13.30;;
63346;SDS011;49472;49.880;8.650;2023-07-09T10:35:37;13.73;;;12.57;;
63346;SDS011;49472;49.880;8.650;2023-07-09T10:40:42;13.63;;;12.35;;
63346;SDS011;49472;49.880;8.650;2023-07-09T10:43:13;14.43;;;13.13;;
63346;SDS011;49472;49.880;8.650;2023-07-09T10:45:47;13.38;;;12.30;;
63346;SDS011;49472;49.880;8.650;2023-07-09T10:48:25;14.50;;;13.40;;
63346;SDS011;49472;49.880;8.650;2023-07-09T10:50:58;14.43;;;13.27;;
63346;SDS011;49472;49.880;8.650;2023-07-09T10:55:53;14.82;;;13.43;;
63346;SDS011;49472;49.880;8.650;2023-07-09T11:01:25;13.82;;;12.65;;
63346;SDS011;49472;49.880;8.650;2023-07-09T11:03:56;14.02;;;13.00;;
63346;SDS011;49472;49.880;8.650;2023-07-09T11:09:11;14.70;;;13.60;;
63346;SDS011;49472;49.880;8.650;2023-07-09T11:11:47;13.73;;;12.50;;
63346;SDS011;49472;49.880;8.650;2023-07-09T11:14:27;14.48;;;13.18;;
63346;SDS011;49472;49.880;8.650;2023-07-09T11:16:58;13.80;;;12.60;;
63346;SDS011;49472;49.880;8.650;2023-07-09T11:19:25;14.30;;;13.00;;
63346;SDS011;49472;49.880;8.650;2023-07-09T11:22:05;15.27;;;13.77;;
63346;SDS011;49472;49.880;8.650;2023-07-09T11:24:50;14.60;;;13.10;;
63346;SDS011;49472;49.880;8.650;2023-07-09T11:27:21;15.25;;;13.43;;
63346;SDS011;49472;49.880;8.650;2023-07-09T11:29:56;14.88;;;13.38;;
63346;SDS011;49472;49.880;8.650;2023-07-09T11:32:22;13.82;;;12.75;;
63346;SDS011;49472;49.880;8.650;2023-07-09T11:34:48;14.43;;;13.07;;
63346;SDS011;49472;49.880;8.650;2023-07-09T11:37:14;13.30;;;12.20;;
63346;SDS011;49472;49.880;8.650;2023-07-09T11:44:49;12.73;;;11.35;;
63346;SDS011;49472;49.880;8.650;2023-07-09T11:50:00;12.55;;;11.55;;
63346;SDS011;49472;49.880;8.650;2023-07-09T11:55:01;13.57;;;12.40;;
63346;SDS011;49472;49.880;8.650;2023-07-09T11:57:28;13.43;;;12.15;;
63346;SDS011;49472;49.880;8.650;2023-07-09T11:59:58;12.68;;;11.77;;
63346;SDS011;49472;49.880;8.650;2023-07-09T12:02:24;13.10;;;12.10;;
63346;SDS011;49472;49.880;8.650;2023-07-09T12:04:58;15.60;;;11.68;;
63346;SDS011;49472;49.880;8.650;2023-07-09T12:07:23;11.80;;;10.98;;
63346;SDS011;49472;49.880;8.650;2023-07-09T12:09:50;11.30;;;10.40;;
63346;SDS011;49472;49.880;8.650;2023-07-09T12:12:20;11.90;;;11.20;;
63346;SDS011;49472;49.880;8.650;2023-07-09T12:14:45;11.43;;;10.63;;
63346;SDS011;49472;49.880;8.650;2023-07-09T12:17:11;13.77;;;10.55;;
63346;SDS011;49472;49.880;8.650;2023-07-09T12:19:36;14.32;;;10.00;;
63346;SDS011;49472;49.880;8.650;2023-07-09T12:22:01;11.10;;;10.30;;
63346;SDS011;49472;49.880;8.650;2023-07-09T12:24:39;11.32;;;10.45;;
63346;SDS011;49472;49.880;8.650;2023-07-09T12:27:22;10.50;;;9.80;;
63346;SDS011;49472;49.880;8.650;2023-07-09T12:29:53;11.25;;;10.15;;
63346;SDS011;49472;49.880;8.650;2023-07-09T12:32:21;14.38;;;10.77;;
63346;SDS011;49472;49.880;8.650;2023-07-09T12:34:51;11.68;;;10.77;;
63346;SDS011;49472;49.880;8.650;2023-07-09T12:37:18;11.30;;;10.25;;
63346;SDS011;49472;49.880;8.650;2023-07-09T12:39:45;11.88;;;9.73;;
63346;SDS011;49472;49.880;8.650;2023-07-09T12:42:16;10.93;;;9.95;;
63346;SDS011;49472;49.880;8.650;2023-07-09T12:44:44;10.43;;;9.50;;
63346;SDS011;49472;49.880;8.650;2023-07-09T12:47:14;11.15;;;10.00;;
63346;SDS011;49472;49.880;8.650;2023-07-09T12:49:42;10.15;;;9.45;;
63346;SDS011;49472;49.880;8.650;2023-07-09T12:52:14;10.65;;;9.60;;
63346;SDS011;49472;49.880;8.650;2023-07-09T12:54:51;9.85;;;9.13;;
63346;SDS011;49472;49.880;8.650;2023-07-09T12:57:21;10.93;;;9.85;;
63346;SDS011;49472;49.880;8.650;2023-07-09T12:59:47;9.90;;;9.20;;
63346;SDS011;49472;49.880;8.650;2023-07-09T13:04:59;9.30;;;8.50;;
63346;SDS011;49472;49.880;8.650;2023-07-09T13:07:32;9.88;;;9.07;;
63346;SDS011;49472;49.880;8.650;2023-07-09T13:10:04;10.07;;;9.10;;
63346;SDS011;49472;49.880;8.650;2023-07-09T13:12:32;10.77;;;9.35;;
63346;SDS011;49472;49.880;8.650;2023-07-09T13:14:59;9.70;;;8.70;;
63346;SDS011;49472;49.880;8.650;2023-07-09T13:17:27;8.98;;;8.48;;
63346;SDS011;49472;49.880;8.650;2023-07-09T13:19:55;8.52;;;8.02;;
63346;SDS011;49472;49.880;8.650;2023-07-09T13:22:22;9.05;;;8.43;;
63346;SDS011;49472;49.880;8.650;2023-07-09T13:24:48;8.70;;;8.10;;
63346;SDS011;49472;49.880;8.650;2023-07-09T13:27:13;9.07;;;8.23;;
63346;SDS011;49472;49.880;8.650;2023-07-09T13:29:40;13.05;;;8.00;;
63346;SDS011;49472;49.880;8.650;2023-07-09T13:32:10;11.60;;;8.02;;
63346;SDS011;49472;49.880;8.650;2023-07-09T13:34:36;8.95;;;8.20;;
63346;SDS011;49472;49.880;8.650;2023-07-09T13:37:04;9.00;;;8.40;;
63346;SDS011;49472;49.880;8.650;2023-07-09T13:39:30;9.05;;;8.45;;
63346;SDS011;49472;49.880;8.650;2023-07-09T13:41:56;9.80;;;8.30;;
63346;SDS011;49472;49.880;8.650;2023-07-09T13:44:27;8.27;;;7.78;;
63346;SDS011;49472;49.880;8.650;2023-07-09T13:47:00;7.88;;;7.40;;
63346;SDS011;49472;49.880;8.650;2023-07-09T13:49:26;8.10;;;7.50;;
63346;SDS011;49472;49.880;8.650;2023-07-09T13:51:53;8.05;;;7.35;;
63346;SDS011;49472;49.880;8.650;2023-07-09T13:54:22;8.20;;;7.60;;
63346;SDS011;49472;49.880;8.650;2023-07-09T13:57:00;8.10;;;7.60;;
63346;SDS011;49472;49.880;8.650;2023-07-09T13:59:27;8.27;;;7.68;;
63346;SDS011;49472;49.880;8.650;2023-07-09T14:01:54;8.07;;;7.40;;
63346;SDS011;49472;49.880;8.650;2023-07-09T14:04:22;8.63;;;7.57;;
63346;SDS011;49472;49.880;8.650;2023-07-09T14:06:49;9.13;;;6.95;;
63346;SDS011;49472;49.880;8.650;2023-07-09T14:09:15;7.75;;;7.15;;
63346;SDS011;49472;49.880;8.650;2023-07-09T14:11:43;10.02;;;6.80;;
63346;SDS011;49472;49.880;8.650;2023-07-09T14:14:21;6.90;;;6.50;;
63346;SDS011;49472;49.880;8.650;2023-07-09T14:16:49;17.75;;;6.75;;
63346;SDS011;49472;49.880;8.650;2023-07-09T14:19:17;7.35;;;6.80;;
63346;SDS011;49472;49.880;8.650;2023-07-09T14:21:46;11.35;;;7.70;;
63346;SDS011;49472;49.880;8.650;2023-07-09T14:24:23;8.57;;;7.45;;
63346;SDS011;49472;49.880;8.650;2023-07-09T14:26:54;8.57;;;7.68;;
63346;SDS011;49472;49.880;8.650;2023-07-09T14:29:21;7.72;;;7.10;;
63346;SDS011;49472;49.880;8.650;2023-07-09T14:31:48;8.43;;;7.70;;
63346;SDS011;49472;49.880;8.650;2023-07-09T14:34:19;7.38;;;6.82;;
63346;SDS011;49472;49.880;8.650;2023-07-09T14:36:47;8.40;;;7.72;;
63346;SDS011;49472;49.880;8.650;2023-07-09T14:39:13;8.48;;;7.68;;
63346;SDS011;49472;49.880;8.650;2023-07-09T14:41:38;8.20;;;7.80;;
63346;SDS011;49472;49.880;8.650;2023-07-09T14:44:12;8.95;;;8.00;;
63346;SDS011;49472;49.880;8.650;2023-07-09T14:46:47;8.65;;;7.95;;
63346;SDS011;49472;49.880;8.650;2023-07-09T14:49:12;8.10;;;7.60;;
63346;SDS011;49472;49.880;8.650;2023-07-09T14:51:40;8.07;;;7.47;;
63346;SDS011;49472;49.880;8.650;2023-07-09T14:54:25;8.43;;;7.65;;
63346;SDS011;49472;49.880;8.650;2023-07-09T14:56:52;7.82;;;7.43;;
63346;SDS011;49472;49.880;8.650;2023-07-09T14:59:19;7.82;;;7.18;;
63346;SDS011;49472;49.880;8.650;2023-07-09T15:01:45;7.60;;;7.18;;
63346;SDS011;49472;49.880;8.650;2023-07-09T15:06:46;9.20;;;7.68;;
63346;SDS011;49472;49.880;8.650;2023-07-09T15:09:12;8.50;;;8.00;;
63346;SDS011;49472;49.880;8.650;2023-07-09T15:11:38;8.35;;;7.68;;
63346;SDS011;49472;49.880;8.650;2023-07-09T15:14:04;8.40;;;7.90;;
63346;SDS011;49472;49.880;8.650;2023-07-09T15:16:35;8.85;;;8.38;;
63346;SDS011;49472;49.880;8.650;2023-07-09T15:19:00;8.20;;;7.70;;
63346;SDS011;49472;49.880;8.650;2023-07-09T15:21:25;8.70;;;8.20;;
63346;SDS011;49472;49.880;8.650;2023-07-09T15:23:51;9.55;;;7.85;;
63346;SDS011;49472;49.880;8.650;2023-07-09T15:26:16;8.88;;;8.27;;
63346;SDS011;49472;49.880;8.650;2023-07-09T15:28:41;9.20;;;8.38;;